Time;durP1;ratioP1;P1;durP2;ratioP2;P2;SDS_P1;SDS_P2;PMS_P1;PMS_P2;Temp;Humidity;BMP_temperature;BMP_pressure;BME280_temperature;BME280_humidity;BME280_pressure;Samples;Min_cycle;Max_cycle;Signal;HPM_P1;HPM_P2
2023/07/28 00:02:26;;;;;;;1.60;1.02;;;23.60;99.90;;;;;;1909256;73;21090;-84
2023/07/28 00:05:17;;;;;;;1.62;1.00;;;23.60;99.90;;;;;;1921852;73;21334;-85
2023/07/28 00:08:09;;;;;;;2.02;1.10;;;23.60;99.90;;;;;;1923867;74;21111;-85
2023/07/28 00:11:00;;;;;;;2.50;0.88;;;23.60;99.90;;;;;;1928071;73;21070;-85
2023/07/28 00:13:52;;;;;;;2.47;1.17;;;23.60;99.90;;;;;;1910369;75;21184;-85
2023/07/28 00:16:43;;;;;;;4.05;1.30;;;23.60;99.90;;;;;;1890082;75;21191;-85
2023/07/28 00:19:35;;;;;;;1.62;1.30;;;23.50;99.90;;;;;;1904559;75;21192;-86
2023/07/28 00:22:26;;;;;;;1.20;1.00;;;23.40;99.90;;;;;;1907036;74;21076;-85
2023/07/28 00:25:17;;;;;;;2.15;1.22;;;23.20;99.90;;;;;;1907507;75;21095;-85
2023/07/28 00:28:09;;;;;;;2.77;1.40;;;23.20;99.90;;;;;;1907645;75;21109;-86
2023/07/28 00:31:01;;;;;;;2.08;1.20;;;23.20;99.90;;;;;;1911858;75;21070;-86
2023/07/28 00:33:53;;;;;;;1.35;1.20;;;23.30;99.90;;;;;;1910851;75;21082;-85
2023/07/28 00:36:45;;;;;;;1.80;1.27;;;23.30;99.90;;;;;;1886147;75;21161;-86
2023/07/28 00:39:37;;;;;;;2.98;1.27;;;23.30;99.90;;;;;;1915715;74;21547;-86
2023/07/28 00:42:29;;;;;;;2.95;1.17;;;23.30;99.90;;;;;;1919304;73;21159;-86
2023/07/28 00:45:21;;;;;;;2.90;1.40;;;23.30;99.90;;;;;;1910797;75;21138;-86
2023/07/28 00:48:15;;;;;;;1.17;1.00;;;23.40;99.90;;;;;;1889011;75;21107;-86
2023/07/28 00:51:07;;;;;;;1.42;1.00;;;23.30;99.90;;;;;;1910800;75;21127;-85
2023/07/28 00:53:59;;;;;;;2.72;1.12;;;23.20;99.90;;;;;;1900341;74;21119;-86
2023/07/28 00:56:50;;;;;;;3.47;1.00;;;23.10;99.90;;;;;;1899119;75;21112;-85
2023/07/28 00:59:42;;;;;;;2.20;1.17;;;23.00;99.90;;;;;;1909562;75;21102;-85
2023/07/28 01:02:34;;;;;;;3.72;1.15;;;23.00;99.90;;;;;;1910316;74;21204;-85
2023/07/28 01:05:29;;;;;;;1.95;1.10;;;22.90;99.90;;;;;;1922237;74;21075;-86
2023/07/28 01:08:23;;;;;;;2.33;1.20;;;22.90;99.90;;;;;;1910370;75;21063;-85
2023/07/28 01:11:14;;;;;;;3.60;1.10;;;22.80;99.90;;;;;;1910249;75;21098;-85
2023/07/28 01:14:05;;;;;;;2.60;1.20;;;22.70;99.90;;;;;;1912210;75;21063;-86
2023/07/28 01:16:57;;;;;;;2.50;1.02;;;22.60;99.90;;;;;;1882978;75;21106;-85
2023/07/28 01:19:48;;;;;;;2.17;1.00;;;22.60;99.90;;;;;;1917583;74;21102;-85
2023/07/28 01:22:57;;;;;;;1.92;1.07;;;22.50;99.90;;;;;;1911838;73;21069;-85
2023/07/28 01:25:58;;;;;;;1.45;1.00;;;22.60;99.90;;;;;;1912961;75;21097;-84
2023/07/28 01:28:50;;;;;;;1.35;1.10;;;22.50;99.90;;;;;;1931331;74;21102;-85
2023/07/28 01:31:42;;;;;;;1.75;1.00;;;22.40;99.90;;;;;;1908947;74;21164;-85
2023/07/28 01:34:34;;;;;;;3.08;1.10;;;22.40;99.90;;;;;;1935017;74;21094;-85
2023/07/28 01:37:25;;;;;;;4.70;1.00;;;22.40;99.90;;;;;;1894487;75;21176;-85
2023/07/28 01:40:17;;;;;;;1.77;0.85;;;22.30;99.90;;;;;;1912921;74;21184;-85
2023/07/28 01:43:09;;;;;;;2.05;0.90;;;22.30;99.90;;;;;;1908604;74;21149;-85
2023/07/28 01:46:00;;;;;;;2.65;1.20;;;22.30;99.90;;;;;;1904073;75;21094;-85
2023/07/28 01:48:53;;;;;;;3.02;1.10;;;22.20;99.90;;;;;;1903693;75;21114;-85
2023/07/28 01:51:45;;;;;;;1.52;1.17;;;22.20;99.90;;;;;;1924437;74;21122;-85
2023/07/28 01:54:36;;;;;;;2.80;1.20;;;22.20;99.90;;;;;;1922087;74;21122;-85
2023/07/28 01:57:29;;;;;;;3.62;1.05;;;22.20;99.90;;;;;;1903429;75;21180;-85
2023/07/28 02:00:21;;;;;;;1.95;1.10;;;22.10;99.90;;;;;;1911682;74;21712;-85
2023/07/28 02:03:12;;;;;;;7.30;1.30;;;22.00;99.90;;;;;;1915361;74;21107;-85
2023/07/28 02:06:04;;;;;;;1.30;1.00;;;22.00;99.90;;;;;;1904222;75;21601;-85
2023/07/28 02:08:56;;;;;;;1.25;0.75;;;22.00;99.90;;;;;;1904205;75;21102;-85
2023/07/28 02:11:47;;;;;;;2.37;1.10;;;22.00;99.90;;;;;;1904105;75;21153;-85
2023/07/28 02:14:39;;;;;;;1.00;0.85;;;21.90;99.90;;;;;;1904111;75;21116;-85
2023/07/28 02:17:31;;;;;;;1.75;1.10;;;21.70;99.90;;;;;;1911553;74;21160;-85
2023/07/28 02:20:22;;;;;;;2.60;1.20;;;21.80;99.90;;;;;;1903292;73;21118;-85
2023/07/28 02:23:14;;;;;;;5.45;1.30;;;21.80;99.90;;;;;;1903333;75;21096;-85
2023/07/28 02:26:06;;;;;;;1.37;1.27;;;21.80;99.90;;;;;;1903977;75;21056;-84
2023/07/28 02:28:57;;;;;;;2.35;1.05;;;21.60;99.90;;;;;;1922936;74;21094;-85
2023/07/28 02:31:48;;;;;;;2.37;1.02;;;21.40;99.90;;;;;;1903731;75;21157;-85
2023/07/28 02:34:40;;;;;;;2.80;1.15;;;21.40;99.90;;;;;;1903654;75;21184;-84
2023/07/28 02:37:32;;;;;;;1.20;1.05;;;21.30;99.90;;;;;;1926351;74;21537;-84
2023/07/28 02:40:23;;;;;;;6.00;1.62;;;21.30;99.90;;;;;;1903824;75;21103;-84
2023/07/28 02:43:16;;;;;;;2.47;1.20;;;21.30;99.90;;;;;;1903877;75;21230;-85
2023/07/28 02:46:08;;;;;;;3.05;1.32;;;21.30;99.90;;;;;;1941884;73;21151;-84
2023/07/28 02:48:59;;;;;;;2.98;1.32;;;21.30;99.90;;;;;;1932878;74;21166;-84
2023/07/28 02:51:51;;;;;;;2.17;1.10;;;21.30;99.90;;;;;;1904002;75;21127;-85
2023/07/28 02:54:42;;;;;;;3.22;1.20;;;21.20;99.90;;;;;;1913386;74;21160;-85
2023/07/28 02:57:33;;;;;;;4.10;1.17;;;21.30;99.90;;;;;;1915439;74;21114;-85
2023/07/28 03:00:25;;;;;;;2.77;1.10;;;21.20;99.90;;;;;;1914732;74;21103;-85
2023/07/28 03:03:17;;;;;;;2.42;1.10;;;21.20;99.90;;;;;;1913929;74;21060;-85
2023/07/28 03:06:08;;;;;;;2.85;1.40;;;21.30;99.90;;;;;;1903835;75;21111;-85
2023/07/28 03:09:01;;;;;;;4.37;1.50;;;21.30;99.90;;;;;;1903564;75;21109;-84
2023/07/28 03:11:57;;;;;;;2.83;1.40;;;21.20;99.90;;;;;;1903212;75;21103;-85
2023/07/28 03:14:49;;;;;;;2.65;1.32;;;21.30;99.90;;;;;;1868950;77;21110;-85
2023/07/28 03:17:41;;;;;;;2.55;1.20;;;21.30;99.90;;;;;;1903568;75;21043;-85
2023/07/28 03:20:33;;;;;;;3.17;1.22;;;21.30;99.90;;;;;;1903808;75;21110;-85
2023/07/28 03:23:24;;;;;;;2.70;1.52;;;21.30;99.90;;;;;;1903773;75;21095;-85
2023/07/28 03:26:16;;;;;;;2.85;1.40;;;21.30;99.90;;;;;;1903456;75;21138;-85
2023/07/28 03:29:08;;;;;;;4.17;1.40;;;21.40;99.90;;;;;;1903692;75;21210;-85
2023/07/28 03:31:59;;;;;;;2.30;1.50;;;21.40;99.90;;;;;;1903957;75;21152;-85
2023/07/28 03:34:51;;;;;;;2.15;1.30;;;21.50;99.90;;;;;;1903476;75;21063;-85
2023/07/28 03:37:43;;;;;;;1.92;1.52;;;21.60;99.90;;;;;;1903905;75;21102;-86
2023/07/28 03:40:34;;;;;;;2.60;1.42;;;21.60;99.90;;;;;;1903910;75;21098;-85
2023/07/28 03:43:26;;;;;;;1.90;1.22;;;21.50;99.90;;;;;;1884498;75;21139;-85
2023/07/28 03:46:18;;;;;;;2.27;1.52;;;21.50;99.90;;;;;;1916845;74;21148;-85
2023/07/28 03:49:09;;;;;;;3.75;1.60;;;21.70;99.90;;;;;;1907661;74;21368;-85
2023/07/28 03:52:01;;;;;;;2.60;1.50;;;21.80;99.90;;;;;;1904010;75;21216;-85
2023/07/28 03:54:53;;;;;;;5.75;1.47;;;21.90;99.90;;;;;;1903894;75;21583;-85
2023/07/28 03:57:44;;;;;;;2.55;1.45;;;21.90;99.90;;;;;;1903865;75;21168;-86
2023/07/28 04:00:36;;;;;;;5.30;1.47;;;22.00;99.90;;;;;;1889063;75;21196;-85
2023/07/28 04:03:27;;;;;;;2.85;1.20;;;22.00;99.90;;;;;;1903719;75;21167;-86
2023/07/28 04:06:18;;;;;;;3.70;1.42;;;22.00;99.90;;;;;;1904023;75;21577;-85
2023/07/28 04:09:10;;;;;;;1.82;1.12;;;22.20;99.90;;;;;;1904108;75;21554;-85
2023/07/28 04:12:01;;;;;;;2.67;1.45;;;22.20;99.90;;;;;;1903057;75;21695;-85
2023/07/28 04:14:52;;;;;;;4.15;1.80;;;22.20;99.90;;;;;;1903521;75;21164;-85
2023/07/28 04:17:45;;;;;;;3.30;1.60;;;22.10;99.90;;;;;;1903966;75;21620;-85
2023/07/28 04:20:38;;;;;;;3.75;1.52;;;22.10;99.90;;;;;;1904216;75;21175;-85
2023/07/28 04:23:29;;;;;;;2.00;1.40;;;22.00;99.90;;;;;;1926533;74;21359;-85
2023/07/28 04:26:22;;;;;;;2.25;1.40;;;22.10;99.90;;;;;;1903991;75;21204;-85
2023/07/28 04:29:15;;;;;;;3.42;1.60;;;21.90;99.90;;;;;;1904554;74;21142;-84
2023/07/28 04:32:08;;;;;;;1.75;1.32;;;21.80;99.90;;;;;;1920102;74;21578;-85
2023/07/28 04:34:59;;;;;;;2.37;1.20;;;21.80;99.90;;;;;;1903811;75;21114;-85
2023/07/28 04:37:52;;;;;;;2.87;1.65;;;21.70;99.90;;;;;;1858627;77;21122;-86
2023/07/28 04:41:02;;;;;;;3.75;1.32;;;21.60;99.90;;;;;;1904011;75;21114;-85
2023/07/28 04:44:00;;;;;;;1.50;1.40;;;21.70;99.90;;;;;;1898697;74;21111;-85
2023/07/28 04:46:53;;;;;;;3.10;1.55;;;21.70;99.90;;;;;;1903862;75;21740;-85
2023/07/28 04:49:45;;;;;;;5.72;1.52;;;21.60;99.90;;;;;;1918996;74;21213;-85
2023/07/28 04:52:47;;;;;;;3.42;1.55;;;21.50;99.90;;;;;;1904092;75;21172;-85
2023/07/28 04:55:57;;;;;;;3.22;1.55;;;21.50;99.90;;;;;;1914476;74;21050;-85
2023/07/28 04:58:48;;;;;;;2.65;1.67;;;21.50;99.90;;;;;;1909472;73;21180;-85
2023/07/28 05:01:40;;;;;;;3.10;1.70;;;21.50;99.90;;;;;;1903891;75;21164;-85
2023/07/28 05:04:31;;;;;;;3.27;1.75;;;21.60;99.90;;;;;;1904169;75;21135;-86
2023/07/28 05:07:24;;;;;;;3.47;1.85;;;21.50;99.90;;;;;;1904010;75;21095;-84
2023/07/28 05:10:15;;;;;;;3.05;1.82;;;21.20;99.90;;;;;;1904118;75;21574;-78
2023/07/28 05:13:08;;;;;;;3.37;1.75;;;21.00;99.90;;;;;;1905111;74;21097;-78
2023/07/28 05:16:00;;;;;;;7.20;2.02;;;21.00;99.90;;;;;;1919513;74;21243;-78
2023/07/28 05:19:07;;;;;;;5.12;2.15;;;20.90;99.90;;;;;;1919780;74;21130;-81
2023/07/28 05:22:16;;;;;;;4.03;2.12;;;20.80;99.90;;;;;;1903711;75;21128;-78
2023/07/28 05:25:10;;;;;;;3.92;2.20;;;20.80;99.90;;;;;;1913738;74;21160;-78
2023/07/28 05:28:03;;;;;;;2.95;1.98;;;20.70;99.90;;;;;;1909495;74;21126;-77
2023/07/28 05:30:58;;;;;;;4.78;2.40;;;20.70;99.90;;;;;;1903717;75;21189;-77
2023/07/28 05:33:49;;;;;;;2.52;1.70;;;20.70;99.90;;;;;;1904090;75;21087;-77
2023/07/28 05:36:41;;;;;;;4.08;2.08;;;20.70;99.90;;;;;;1915523;74;21094;-77
2023/07/28 05:39:32;;;;;;;3.30;1.98;;;20.60;99.90;;;;;;1903786;75;21146;-77
2023/07/28 05:42:24;;;;;;;3.50;2.00;;;20.60;99.90;;;;;;1903440;74;21106;-77
2023/07/28 05:47:54;;;;;;;8.30;2.05;;;20.70;99.90;;;;;;1955441;72;22298;-77
2023/07/28 05:50:45;;;;;;;4.15;2.50;;;20.60;99.90;;;;;;1894015;74;21103;-77
2023/07/28 05:53:37;;;;;;;3.70;2.08;;;20.60;99.90;;;;;;1897622;73;21254;-77
2023/07/28 05:56:30;;;;;;;3.80;1.98;;;20.60;99.90;;;;;;1901464;75;21148;-77
2023/07/28 05:59:21;;;;;;;3.83;1.95;;;20.60;99.90;;;;;;1896635;75;21102;-79
2023/07/28 06:02:12;;;;;;;4.60;1.92;;;20.60;99.90;;;;;;1894543;75;21301;-77
2023/07/28 06:05:06;;;;;;;4.15;2.05;;;20.70;99.90;;;;;;1894757;75;21122;-78
2023/07/28 06:07:58;;;;;;;2.50;2.30;;;20.90;99.90;;;;;;1908772;75;21098;-78
2023/07/28 06:10:49;;;;;;;3.12;2.15;;;20.90;99.90;;;;;;1897954;75;21110;-78
2023/07/28 06:13:40;;;;;;;3.72;2.15;;;20.80;99.90;;;;;;1873395;75;21111;-78
2023/07/28 06:16:31;;;;;;;3.67;2.00;;;20.80;99.90;;;;;;1890776;75;21089;-78
2023/07/28 06:19:24;;;;;;;4.67;1.95;;;20.80;99.90;;;;;;1912004;74;21164;-78
2023/07/28 06:22:16;;;;;;;2.77;2.30;;;21.00;99.90;;;;;;1900153;75;21528;-78
2023/07/28 06:25:09;;;;;;;6.17;2.42;;;21.00;99.90;;;;;;1883945;75;21105;-78
2023/07/28 06:28:01;;;;;;;7.08;2.22;;;20.90;99.90;;;;;;1890210;75;21176;-77
2023/07/28 06:30:56;;;;;;;3.72;2.05;;;20.80;99.90;;;;;;1894818;75;21172;-75
2023/07/28 06:33:49;;;;;;;4.90;2.40;;;20.90;99.90;;;;;;1897940;75;21142;-73
2023/07/28 06:36:41;;;;;;;2.83;1.87;;;20.90;99.90;;;;;;1897546;75;21503;-73
2023/07/28 06:39:32;;;;;;;3.10;2.20;;;21.00;99.90;;;;;;1895173;75;21110;-81
2023/07/28 06:42:24;;;;;;;3.30;2.02;;;21.10;99.90;;;;;;1894749;75;21177;-73
2023/07/28 06:45:17;;;;;;;3.17;1.77;;;21.10;99.90;;;;;;1912224;73;21197;-73
2023/07/28 06:48:08;;;;;;;2.65;1.90;;;21.00;99.90;;;;;;1889609;75;21157;-75
2023/07/28 06:50:59;;;;;;;3.62;1.90;;;21.30;99.90;;;;;;1915414;75;21385;-75
2023/07/28 06:53:51;;;;;;;4.28;1.92;;;21.30;99.90;;;;;;1906060;73;21150;-76
2023/07/28 06:56:42;;;;;;;3.40;2.17;;;21.30;99.90;;;;;;1911007;73;21097;-76
2023/07/28 06:59:35;;;;;;;4.60;2.12;;;21.60;99.90;;;;;;1899531;75;21134;-75
2023/07/28 07:02:26;;;;;;;5.28;2.08;;;21.70;99.90;;;;;;1904892;75;21121;-75
2023/07/28 07:05:19;;;;;;;3.75;2.40;;;21.70;99.90;;;;;;1904948;75;21168;-75
2023/07/28 07:08:10;;;;;;;3.65;2.10;;;21.90;99.90;;;;;;1904464;75;21209;-75
2023/07/28 07:11:01;;;;;;;4.40;2.30;;;22.20;99.90;;;;;;1899146;75;21134;-76
2023/07/28 07:13:52;;;;;;;3.22;2.00;;;22.30;99.90;;;;;;1882611;75;21147;-76
2023/07/28 07:16:44;;;;;;;5.45;2.40;;;22.50;99.90;;;;;;1889426;75;21199;-76
2023/07/28 07:19:36;;;;;;;3.85;1.90;;;22.60;99.90;;;;;;1892170;75;21185;-75
2023/07/28 07:22:29;;;;;;;3.85;2.42;;;22.50;99.90;;;;;;1901069;75;21130;-76
2023/07/28 07:25:20;;;;;;;4.33;2.30;;;22.60;99.90;;;;;;1895432;75;21138;-75
2023/07/28 07:28:11;;;;;;;5.53;2.58;;;22.50;99.90;;;;;;1893055;75;21573;-76
2023/07/28 07:31:03;;;;;;;3.20;2.58;;;22.40;99.90;;;;;;1890867;75;21554;-76
2023/07/28 07:33:54;;;;;;;2.98;2.15;;;22.30;99.90;;;;;;1901422;75;21074;-76
2023/07/28 07:36:46;;;;;;;4.37;2.72;;;22.30;99.90;;;;;;1893863;75;21133;-75
2023/07/28 07:39:37;;;;;;;4.30;2.37;;;22.30;99.90;;;;;;1836279;78;22324;-75
2023/07/28 07:42:32;;;;;;;3.40;2.42;;;22.30;99.90;;;;;;1881289;75;21133;-75
2023/07/28 07:45:23;;;;;;;4.17;2.83;;;22.20;99.90;;;;;;1903742;75;21166;-75
2023/07/28 07:48:14;;;;;;;4.22;2.30;;;22.30;99.90;;;;;;1901076;75;21153;-76
2023/07/28 07:51:08;;;;;;;3.58;2.50;;;22.40;99.90;;;;;;1857941;76;21203;-76
2023/07/28 07:54:01;;;;;;;3.58;2.45;;;22.50;99.90;;;;;;1856289;76;21340;-76
2023/07/28 07:56:57;;;;;;;3.72;1.82;;;22.50;99.90;;;;;;1856068;76;21200;-76
2023/07/28 07:59:51;;;;;;;3.90;2.27;;;22.50;99.90;;;;;;1880513;76;21569;-76
2023/07/28 08:02:44;;;;;;;4.40;2.50;;;22.50;99.90;;;;;;1897386;75;21217;-76
2023/07/28 08:05:37;;;;;;;4.62;2.90;;;22.60;99.90;;;;;;1892190;74;21169;-76
2023/07/28 08:08:32;;;;;;;5.42;2.33;;;22.50;99.90;;;;;;1887692;75;21114;-75
2023/07/28 08:11:26;;;;;;;3.65;2.47;;;22.50;99.90;;;;;;1892093;75;21130;-75
2023/07/28 08:17:01;;;;;;;2.70;2.20;;;22.80;99.90;;;;;;1933867;72;22231;-76
2023/07/28 08:19:52;;;;;;;3.33;1.92;;;22.90;99.90;;;;;;1890531;75;21237;-76
2023/07/28 08:22:43;;;;;;;7.25;2.33;;;23.00;99.90;;;;;;1892345;75;21149;-76
2023/07/28 08:25:34;;;;;;;2.92;1.80;;;23.10;99.90;;;;;;1882328;75;21086;-76
2023/07/28 08:28:25;;;;;;;2.77;1.85;;;23.20;99.90;;;;;;1894793;75;21082;-76
2023/07/28 08:31:17;;;;;;;1.80;1.40;;;23.30;99.90;;;;;;1908081;75;21062;-76
2023/07/28 08:34:11;;;;;;;1.80;1.37;;;23.40;99.90;;;;;;1889582;75;21207;-76
2023/07/28 08:37:02;;;;;;;3.20;1.60;;;23.60;99.90;;;;;;1901210;75;21209;-76
2023/07/28 08:39:53;;;;;;;2.22;1.67;;;23.70;99.90;;;;;;1895295;75;21102;-76
2023/07/28 08:42:46;;;;;;;2.30;1.77;;;23.90;99.90;;;;;;1891692;75;21461;-76
2023/07/28 08:45:38;;;;;;;2.80;1.70;;;24.00;99.90;;;;;;1897083;73;21204;-76
2023/07/28 08:48:29;;;;;;;2.40;2.00;;;24.20;99.90;;;;;;1882283;75;22338;-80
2023/07/28 08:51:24;;;;;;;3.55;2.10;;;24.30;99.90;;;;;;1904597;75;21228;-80
2023/07/28 08:54:17;;;;;;;4.87;1.98;;;24.50;99.90;;;;;;1893152;75;21184;-80
2023/07/28 08:57:09;;;;;;;3.55;1.85;;;24.50;99.90;;;;;;1914462;75;21177;-80
2023/07/28 09:00:03;;;;;;;3.37;1.80;;;24.70;99.90;;;;;;1895141;75;21186;-80
2023/07/28 09:02:54;;;;;;;2.37;1.70;;;24.80;99.90;;;;;;1881932;76;21148;-80
2023/07/28 09:05:46;;;;;;;2.22;1.75;;;24.90;99.90;;;;;;1881179;76;21751;-80
2023/07/28 09:08:38;;;;;;;2.95;2.00;;;25.00;99.90;;;;;;1819967;77;21061;-80
2023/07/28 09:11:31;;;;;;;3.27;1.67;;;25.20;99.90;;;;;;1904121;75;21163;-80
2023/07/28 09:14:24;;;;;;;2.20;1.90;;;25.40;99.90;;;;;;1900737;75;21134;-80
2023/07/28 09:17:17;;;;;;;2.37;1.70;;;25.40;99.90;;;;;;1895977;75;21129;-80
2023/07/28 09:20:11;;;;;;;3.33;1.90;;;25.40;99.90;;;;;;1905939;75;21102;-80
2023/07/28 09:23:05;;;;;;;4.45;1.92;;;25.40;99.90;;;;;;1891592;75;21192;-80
2023/07/28 09:26:01;;;;;;;4.75;1.95;;;25.50;99.90;;;;;;1878776;75;21146;-80
2023/07/28 09:28:54;;;;;;;2.42;1.67;;;25.70;99.90;;;;;;1899173;75;21176;-80
2023/07/28 09:31:46;;;;;;;2.60;1.85;;;25.70;99.90;;;;;;1894200;75;21134;-80
2023/07/28 09:34:37;;;;;;;2.60;2.02;;;25.70;99.90;;;;;;1906675;75;21058;-80
2023/07/28 09:37:28;;;;;;;7.22;1.85;;;25.70;99.90;;;;;;1875097;75;21134;-80
2023/07/28 09:40:21;;;;;;;2.60;1.80;;;25.90;99.90;;;;;;1869356;75;21126;-80
2023/07/28 09:43:13;;;;;;;2.12;1.57;;;26.00;99.90;;;;;;1883476;75;21098;-80
2023/07/28 09:46:07;;;;;;;3.05;1.40;;;26.00;99.90;;;;;;1892542;75;21123;-80
2023/07/28 09:49:02;;;;;;;1.95;1.60;;;26.10;99.90;;;;;;1891329;75;21685;-80
2023/07/28 09:51:55;;;;;;;2.27;1.77;;;26.20;99.90;;;;;;1892048;75;21156;-80
2023/07/28 09:54:52;;;;;;;3.27;1.35;;;26.10;99.90;;;;;;1899219;75;21163;-82
2023/07/28 09:57:46;;;;;;;2.55;1.80;;;26.20;99.90;;;;;;1894842;75;21138;-80
2023/07/28 10:00:38;;;;;;;2.33;1.70;;;26.20;99.90;;;;;;1905941;75;21163;-80
2023/07/28 10:03:31;;;;;;;2.05;1.50;;;26.30;99.90;;;;;;1891571;75;21094;-80
2023/07/28 10:06:23;;;;;;;2.30;1.90;;;26.50;99.90;;;;;;1891049;75;21152;-80
2023/07/28 10:09:16;;;;;;;2.83;1.80;;;26.50;99.90;;;;;;1906307;75;21126;-80
2023/07/28 10:12:09;;;;;;;3.52;1.95;;;26.50;99.90;;;;;;1882004;75;21400;-80
2023/07/28 10:15:05;;;;;;;1.92;1.72;;;26.50;99.90;;;;;;1891951;75;21135;-81
2023/07/28 10:17:59;;;;;;;2.92;2.12;;;26.70;99.90;;;;;;1872306;75;21199;-80
2023/07/28 10:20:51;;;;;;;2.60;1.98;;;27.00;99.90;;;;;;1882697;75;21554;-80
2023/07/28 10:23:43;;;;;;;2.65;2.10;;;27.20;99.90;;;;;;1884006;75;21167;-80
2023/07/28 10:26:41;;;;;;;2.55;2.12;;;27.40;99.90;;;;;;1905470;75;21118;-79
2023/07/28 10:29:38;;;;;;;2.27;1.90;;;27.50;99.90;;;;;;1903584;75;21208;-80
2023/07/28 10:32:30;;;;;;;3.58;1.87;;;27.50;99.90;;;;;;1894647;75;21110;-80
2023/07/28 10:35:27;;;;;;;2.20;1.95;;;27.70;99.90;;;;;;1886625;75;21599;-80
2023/07/28 10:38:34;;;;;;;2.42;1.87;;;27.80;99.90;;;;;;1881761;75;21162;-79
2023/07/28 10:41:29;;;;;;;2.08;1.67;;;28.00;99.90;;;;;;1901136;75;21605;-81
2023/07/28 10:44:20;;;;;;;2.98;1.92;;;28.00;99.90;;;;;;1873536;75;21096;-81
2023/07/28 10:47:13;;;;;;;4.20;1.92;;;28.00;99.90;;;;;;1900107;75;21130;-81
2023/07/28 10:50:06;;;;;;;2.33;1.87;;;28.00;99.90;;;;;;1912849;75;21129;-80
2023/07/28 10:52:58;;;;;;;1.95;1.80;;;28.20;99.90;;;;;;1889460;75;21142;-80
2023/07/28 10:55:49;;;;;;;4.90;2.00;;;28.20;99.90;;;;;;1904142;75;21199;-80
2023/07/28 10:58:41;;;;;;;2.30;2.10;;;28.20;99.90;;;;;;1891710;75;21106;-80
2023/07/28 11:01:36;;;;;;;3.77;1.65;;;28.00;99.90;;;;;;1902317;75;21125;-81
2023/07/28 11:04:28;;;;;;;2.75;2.00;;;28.10;99.90;;;;;;1897705;75;21117;-80
2023/07/28 11:07:19;;;;;;;3.05;1.90;;;28.10;99.90;;;;;;1892236;75;21130;-80
2023/07/28 11:10:12;;;;;;;2.98;1.77;;;28.10;99.90;;;;;;1891598;75;21589;-80
2023/07/28 11:13:06;;;;;;;2.75;1.87;;;28.10;99.90;;;;;;1891258;75;21188;-80
2023/07/28 11:16:01;;;;;;;2.80;1.92;;;28.00;99.90;;;;;;1888825;75;21192;-80
2023/07/28 11:18:54;;;;;;;4.12;1.80;;;28.00;99.90;;;;;;1883749;75;21143;-76
2023/07/28 11:21:50;;;;;;;2.55;2.10;;;28.10;99.90;;;;;;1905252;75;21151;-78
2023/07/28 11:24:39;;;;;;;2.60;1.70;;;28.10;99.90;;;;;;1886415;75;21127;-78
2023/07/28 11:27:30;;;;;;;2.12;1.67;;;28.20;99.90;;;;;;1893254;75;21125;-78
2023/07/28 11:30:22;;;;;;;2.45;1.92;;;28.40;99.90;;;;;;1897868;75;21070;-78
2023/07/28 11:33:14;;;;;;;2.17;1.80;;;28.50;99.90;;;;;;1892759;75;21122;-78
2023/07/28 11:36:07;;;;;;;2.37;1.92;;;28.50;99.90;;;;;;1896730;75;21144;-79
2023/07/28 11:39:00;;;;;;;3.08;1.87;;;28.60;99.90;;;;;;1891239;75;21123;-78
2023/07/28 11:41:54;;;;;;;2.95;2.00;;;28.70;99.90;;;;;;1869829;75;21133;-78
2023/07/28 11:44:46;;;;;;;3.17;1.70;;;28.70;99.90;;;;;;1906652;75;21149;-79
2023/07/28 11:47:38;;;;;;;6.62;2.00;;;28.70;99.90;;;;;;1883954;75;21133;-79
2023/07/28 11:50:32;;;;;;;3.10;2.12;;;28.40;99.90;;;;;;1903423;75;21138;-79
2023/07/28 11:53:25;;;;;;;3.02;1.90;;;28.50;99.90;;;;;;1902036;75;21122;-79
2023/07/28 11:56:16;;;;;;;2.77;2.05;;;28.60;99.90;;;;;;1884548;75;21115;-78
2023/07/28 11:59:08;;;;;;;2.25;1.40;;;28.60;99.90;;;;;;1892061;75;21192;-77
2023/07/28 12:02:01;;;;;;;3.02;1.75;;;28.50;99.90;;;;;;1900065;75;21083;-77
2023/07/28 12:04:54;;;;;;;2.25;1.70;;;28.50;99.90;;;;;;1902095;75;21121;-77
2023/07/28 12:07:50;;;;;;;1.75;1.62;;;28.50;99.90;;;;;;1887004;75;21067;-77
2023/07/28 12:10:56;;;;;;;3.83;1.72;;;28.50;99.90;;;;;;1902003;75;21107;-77
2023/07/28 12:13:52;;;;;;;2.10;1.70;;;28.50;99.90;;;;;;1880569;75;21144;-76
2023/07/28 12:16:47;;;;;;;2.70;1.57;;;28.50;99.90;;;;;;1903823;75;21179;-77
2023/07/28 12:19:43;;;;;;;4.28;1.82;;;28.60;99.90;;;;;;1903959;74;21130;-77
2023/07/28 12:22:36;;;;;;;3.45;1.50;;;28.60;99.90;;;;;;1900991;75;21138;-77
2023/07/28 12:25:47;;;;;;;2.35;1.67;;;28.80;99.90;;;;;;1913472;73;21114;-79
2023/07/28 12:28:39;;;;;;;4.37;1.57;;;28.90;99.90;;;;;;1899819;75;21118;-77
2023/07/28 12:31:32;;;;;;;2.02;1.52;;;29.10;99.90;;;;;;1875177;75;21176;-77
2023/07/28 12:34:28;;;;;;;3.72;1.87;;;29.00;99.90;;;;;;1902474;75;21446;-77
2023/07/28 12:37:22;;;;;;;1.92;1.72;;;28.90;99.90;;;;;;1904151;75;21160;-77
2023/07/28 12:40:33;;;;;;;1.70;1.60;;;29.10;99.90;;;;;;1897941;75;21114;-77
2023/07/28 12:43:46;;;;;;;2.25;1.67;;;29.20;99.90;;;;;;1898336;75;21170;-78
2023/07/28 12:46:41;;;;;;;2.83;1.50;;;29.40;99.90;;;;;;1893223;75;21118;-77
2023/07/28 12:53:09;;;;;;;2.33;1.50;;;29.50;99.90;;;;;;1881606;75;21110;-76
2023/07/28 12:56:03;;;;;;;2.95;1.80;;;29.50;99.90;;;;;;1893278;75;21107;-76
2023/07/28 12:58:59;;;;;;;1.90;1.70;;;29.50;99.90;;;;;;1907041;75;21113;-76
2023/07/28 13:01:54;;;;;;;2.75;1.72;;;29.70;99.90;;;;;;1903591;75;21102;-77
2023/07/28 13:05:10;;;;;;;1.90;1.60;;;30.00;99.90;;;;;;1902678;75;21114;-76
2023/07/28 13:08:20;;;;;;;3.10;2.00;;;30.10;99.90;;;;;;1902400;75;21179;-77
2023/07/28 13:11:14;;;;;;;2.25;1.80;;;30.20;99.90;;;;;;1901554;75;21127;-77
2023/07/28 13:14:09;;;;;;;3.77;1.82;;;30.30;99.90;;;;;;1878059;75;21593;-76
2023/07/28 13:20:31;;;;;;;2.65;2.10;;;30.10;99.90;;;;;;1903157;74;21158;-77
2023/07/28 13:23:42;;;;;;;3.25;1.62;;;29.80;99.90;;;;;;1921430;74;21074;-76
2023/07/28 13:30:41;;;;;;;4.15;1.80;;;30.00;99.90;;;;;;1908549;74;21113;-78
2023/07/28 13:33:34;;;;;;;3.37;1.70;;;30.10;99.90;;;;;;1912079;74;21066;-83
2023/07/28 13:36:44;;;;;;;2.25;1.72;;;30.10;99.90;;;;;;1856578;76;21108;-83
2023/07/28 13:39:37;;;;;;;2.22;1.82;;;30.00;99.90;;;;;;1878973;76;21136;-82
2023/07/28 13:42:30;;;;;;;2.15;1.95;;;30.00;99.90;;;;;;1860972;76;21132;-84
2023/07/28 13:45:22;;;;;;;3.77;1.98;;;29.90;99.90;;;;;;1919278;74;21141;-84
2023/07/28 13:48:15;;;;;;;2.30;1.77;;;30.10;99.90;;;;;;1897225;75;21134;-83
2023/07/28 13:54:24;;;;;;;4.33;2.30;;;30.60;99.90;;;;;;1910003;74;21654;-84
2023/07/28 13:57:18;;;;;;;1.90;1.80;;;30.90;99.90;;;;;;1908120;74;21070;-83
2023/07/28 14:00:13;;;;;;;3.08;1.87;;;31.00;99.90;;;;;;1905291;74;21174;-83
2023/07/28 14:03:07;;;;;;;2.98;2.00;;;31.50;99.90;;;;;;1918480;74;21139;-83
2023/07/28 14:06:14;;;;;;;2.47;2.05;;;31.50;99.90;;;;;;1913550;74;21102;-83
2023/07/28 14:09:09;;;;;;;5.67;1.90;;;31.40;99.90;;;;;;1930692;74;21169;-83
2023/07/28 14:12:19;;;;;;;2.22;1.82;;;31.80;99.90;;;;;;1898259;74;21121;-84
2023/07/28 14:15:14;;;;;;;2.55;2.10;;;32.20;99.90;;;;;;1907469;74;21842;-83
2023/07/28 14:18:08;;;;;;;2.40;1.92;;;32.20;99.90;;;;;;1899910;74;21137;-76
2023/07/28 14:21:02;;;;;;;2.40;2.05;;;32.20;99.90;;;;;;1908428;74;21542;-76
2023/07/28 14:23:55;;;;;;;3.22;2.12;;;32.30;99.90;;;;;;1914822;74;21157;-76
2023/07/28 14:26:47;;;;;;;2.05;1.87;;;31.90;99.90;;;;;;1917671;74;21098;-76
2023/07/28 14:29:53;;;;;;;2.02;1.90;;;31.60;99.90;;;;;;1926464;74;21138;-76
2023/07/28 14:33:01;;;;;;;3.02;2.22;;;31.20;99.90;;;;;;1902190;74;21506;-83
2023/07/28 14:35:54;;;;;;;2.37;2.10;;;30.80;99.90;;;;;;1827264;77;21153;-83
2023/07/28 14:38:58;;;;;;;2.35;1.95;;;30.70;99.90;;;;;;1897077;75;21171;-83
2023/07/28 14:41:54;;;;;;;2.42;2.05;;;30.60;99.90;;;;;;1841763;77;21057;-83
2023/07/28 14:44:48;;;;;;;2.30;1.90;;;30.60;99.90;;;;;;1923511;73;21659;-83
2023/07/28 14:47:40;;;;;;;3.65;2.12;;;30.50;99.90;;;;;;1924632;73;21276;-83
2023/07/28 14:50:35;;;;;;;4.40;2.40;;;30.60;99.90;;;;;;1900431;74;21487;-83
2023/07/28 14:53:33;;;;;;;5.20;2.10;;;30.80;99.90;;;;;;1897375;75;21609;-82
2023/07/28 14:56:25;;;;;;;3.70;1.90;;;30.90;99.90;;;;;;1914629;74;21368;-83
2023/07/28 15:02:33;;;;;;;2.70;1.87;;;31.00;99.90;;;;;;1909483;74;21122;-83
2023/07/28 15:05:25;;;;;;;3.45;2.00;;;30.80;99.90;;;;;;1923584;74;21138;-83
2023/07/28 15:08:17;;;;;;;3.87;2.45;;;30.70;99.90;;;;;;1897403;74;22449;-82
2023/07/28 15:11:10;;;;;;;2.72;2.08;;;30.60;99.90;;;;;;1842036;77;21676;-83
2023/07/28 15:14:04;;;;;;;2.83;2.10;;;30.60;99.90;;;;;;1897357;74;21510;-83
2023/07/28 15:17:00;;;;;;;3.30;2.08;;;30.50;99.90;;;;;;1906642;74;21231;-82
2023/07/28 15:19:54;;;;;;;2.35;2.15;;;30.60;99.90;;;;;;1908247;74;21094;-83
2023/07/28 15:22:46;;;;;;;2.55;2.12;;;31.60;99.90;;;;;;1903851;74;21105;-82
2023/07/28 15:25:42;;;;;;;2.55;2.02;;;33.00;99.90;;;;;;1891294;74;21154;-83
2023/07/28 15:28:34;;;;;;;2.40;2.08;;;33.10;99.90;;;;;;1923834;74;21219;-82